Time,TemperatureF,DewpointF,PressureIn,WindDirection,WindDirectionDegrees,WindSpeedMPH,WindSpeedGustMPH,Humidity,HourlyPrecipIn,Conditions,Clouds,dailyrainin,SoftwareType,DateUTC
2013-02-20 00:12:00,31.4,12.0,30.12,WSW,254,15.0,17.0,45,0.00,,,0.00,weatherlink.com 1.10,2013-02-20 05:12:00,
2013-02-20 00:27:00,31.2,12.0,30.12,NW,312,13.0,24.0,45,0.00,,,0.00,weatherlink.com 1.10,2013-02-20 05:27:00,
2013-02-20 00:42:00,30.9,11.0,30.12,WNW,286,6.0,19.0,44,0.00,,,0.00,weatherlink.com 1.10,2013-02-20 05:42:00,
2013-02-20 00:57:00,30.5,11.0,30.11,WNW,301,6.0,19.0,44,0.00,,,0.00,weatherlink.com 1.10,2013-02-20 05:57:00,
2013-02-20 01:12:00,30.2,11.0,30.11,WNW,291,17.0,28.0,45,0.00,,,0.00,weatherlink.com 1.10,2013-02-20 06:12:00,
2013-02-20 01:27:00,30.0,11.0,30.11,WNW,286,19.0,26.0,45,0.00,,,0.00,weatherlink.com 1.10,2013-02-20 06:27:00,
2013-02-20 01:42:00,29.6,11.0,30.11,ENE,72,4.0,14.0,46,0.00,,,0.00,weatherlink.com 1.10,2013-02-20 06:42:00,
2013-02-20 01:57:00,29.4,11.0,30.11,NW,311,6.0,16.0,46,0.00,,,0.00,weatherlink.com 1.10,2013-02-20 06:57:00,
2013-02-20 02:12:00,29.1,11.0,30.12,NW,309,4.0,17.0,46,0.00,,,0.00,weatherlink.com 1.10,2013-02-20 07:12:00,
2013-02-20 02:27:00,29.0,10.0,30.12,WNW,290,8.0,18.0,45,0.00,,,0.00,weatherlink.com 1.10,2013-02-20 07:27:00,
2013-02-20 02:42:00,28.9,9.0,30.12,NW,326,8.0,19.0,44,0.00,,,0.00,weatherlink.com 1.10,2013-02-20 07:42:00,
2013-02-20 02:57:00,28.7,9.0,30.11,West,277,9.0,20.0,44,0.00,,,0.00,weatherlink.com 1.10,2013-02-20 07:57:00,
2013-02-20 03:12:00,28.5,8.0,30.11,WNW,303,7.0,17.0,43,0.00,,,0.00,weatherlink.com 1.10,2013-02-20 08:12:00,
2013-02-20 03:27:00,28.3,7.0,30.11,NNW,345,10.0,20.0,41,0.00,,,0.00,weatherlink.com 1.10,2013-02-20 08:27:00,
2013-02-20 03:42:00,28.2,7.0,30.12,WNW,296,7.0,23.0,40,0.00,,,0.00,weatherlink.com 1.10,2013-02-20 08:42:00,
2013-02-20 03:57:00,28.1,6.0,30.11,NNW,328,12.0,26.0,39,0.00,,,0.00,weatherlink.com 1.10,2013-02-20 08:57:00,
2013-02-20 04:12:00,27.9,6.0,30.11,NW,307,13.0,19.0,39,0.00,,,0.00,weatherlink.com 1.10,2013-02-20 09:12:00,
2013-02-20 04:27:00,27.8,6.0,30.12,WNW,289,5.0,21.0,39,0.00,,,0.00,weatherlink.com 1.10,2013-02-20 09:27:00,
2013-02-20 04:42:00,27.6,6.0,30.11,WNW,298,9.0,21.0,40,0.00,,,0.00,weatherlink.com 1.10,2013-02-20 09:42:00,
2013-02-20 04:57:00,27.4,6.0,30.11,NW,316,9.0,19.0,40,0.00,,,0.00,weatherlink.com 1.10,2013-02-20 09:57:00,
2013-02-20 05:12:00,27.5,6.0,30.12,NW,315,10.0,19.0,40,0.00,,,0.00,weatherlink.com 1.10,2013-02-20 10:12:00,
2013-02-20 05:27:00,27.2,6.0,30.13,SSW,203,7.0,14.0,41,0.00,,,0.00,weatherlink.com 1.10,2013-02-20 10:27:00,
2013-02-20 05:42:00,27.4,6.0,30.13,WNW,294,2.0,18.0,40,0.00,,,0.00,weatherlink.com 1.10,2013-02-20 10:42:00,
2013-02-20 05:57:00,27.7,5.0,30.13,NW,318,7.0,21.0,38,0.00,,,0.00,weatherlink.com 1.10,2013-02-20 10:57:00,
2013-02-20 06:12:00,28.0,4.0,30.13,South,187,1.0,21.0,36,0.00,,,0.00,weatherlink.com 1.10,2013-02-20 11:12:00,
2013-02-20 06:28:00,28.1,4.0,30.14,WNW,297,14.0,16.0,35,0.00,,,0.00,weatherlink.com 1.10,2013-02-20 11:28:00,
2013-02-20 06:43:00,28.2,4.0,30.14,WNW,293,14.0,17.0,35,0.00,,,0.00,weatherlink.com 1.10,2013-02-20 11:43:00,
2013-02-20 06:58:00,28.3,3.0,30.14,WNW,296,5.0,18.0,34,0.00,,,0.00,weatherlink.com 1.10,2013-02-20 11:58:00,
2013-02-20 07:13:00,28.3,3.0,30.15,WNW,291,7.0,19.0,34,0.00,,,0.00,weatherlink.com 1.10,2013-02-20 12:13:00,
2013-02-20 07:28:00,28.2,2.0,30.15,NW,308,5.0,16.0,33,0.00,,,0.00,weatherlink.com 1.10,2013-02-20 12:28:00,
2013-02-20 07:43:00,28.5,2.0,30.16,NW,304,6.0,16.0,32,0.00,,,0.00,weatherlink.com 1.10,2013-02-20 12:43:00,
2013-02-20 07:58:00,28.8,1.0,30.16,NW,305,5.0,15.0,30,0.00,,,0.00,weatherlink.com 1.10,2013-02-20 12:58:00,
2013-02-20 08:13:00,29.6,0.0,30.17,NW,322,3.0,18.0,28,0.00,,,0.00,weatherlink.com 1.10,2013-02-20 13:13:00,
2013-02-20 08:28:00,31.0,0.0,30.18,WNW,284,2.0,21.0,26,0.00,,,0.00,weatherlink.com 1.10,2013-02-20 13:28:00,
2013-02-20 08:43:00,32.4,-1.0,30.19,NW,309,3.0,18.0,24,0.00,,,0.00,weatherlink.com 1.10,2013-02-20 13:43:00,
2013-02-20 08:58:00,33.7,0.0,30.20,NE,51,4.0,21.0,24,0.00,,,0.00,weatherlink.com 1.10,2013-02-20 13:58:00,
2013-02-20 09:13:00,34.7,-2.0,30.20,NW,323,5.0,16.0,21,0.00,,,0.00,weatherlink.com 1.10,2013-02-20 14:13:00,
2013-02-20 09:28:00,35.7,-2.0,30.20,WNW,284,2.0,16.0,20,0.00,,,0.00,weatherlink.com 1.10,2013-02-20 14:28:00,
2013-02-20 09:43:00,36.7,-2.0,30.20,NW,315,7.0,17.0,19,0.00,,,0.00,weatherlink.com 1.10,2013-02-20 14:43:00,
2013-02-20 09:58:00,37.5,-6.0,30.21,NE,53,7.0,16.0,15,0.00,,,0.00,weatherlink.com 1.10,2013-02-20 14:58:00,
2013-02-20 10:13:00,37.7,-5.0,30.21,WNW,290,5.0,22.0,16,0.00,,,0.00,weatherlink.com 1.10,2013-02-20 15:13:00,
2013-02-20 10:28:00,38.8,-2.0,30.20,NW,314,9.0,16.0,18,0.00,,,0.00,weatherlink.com 1.10,2013-02-20 15:28:00,
2013-02-20 10:43:00,40.6,-1.0,30.20,NW,312,6.0,12.0,17,0.00,,,0.00,weatherlink.com 1.10,2013-02-20 15:43:00,
2013-02-20 10:59:00,40.5,-3.0,30.21,NW,307,4.0,10.0,16,0.00,,,0.00,weatherlink.com 1.10,2013-02-20 15:59:00,
2013-02-20 11:14:00,40.5,-3.0,30.21,WNW,301,1.0,11.0,16,0.00,,,0.00,weatherlink.com 1.10,2013-02-20 16:14:00,
2013-02-20 11:29:00,42.6,-1.0,30.20,NW,312,6.0,9.0,16,0.00,,,0.00,weatherlink.com 1.10,2013-02-20 16:29:00,
2013-02-20 11:44:00,45.3,1.0,30.21,North,9,1.0,11.0,16,0.00,,,0.00,weatherlink.com 1.10,2013-02-20 16:44:00,
2013-02-20 11:59:00,45.2,-2.0,30.21,NW,318,3.0,10.0,14,0.00,,,0.00,weatherlink.com 1.10,2013-02-20 16:59:00,
2013-02-20 12:14:00,44.2,-2.0,30.21,WSW,247,3.0,13.0,14,0.00,,,0.00,weatherlink.com 1.10,2013-02-20 17:14:00,
2013-02-20 12:29:00,44.6,-2.0,30.20,NE,53,0.0,7.0,14,0.00,,,0.00,weatherlink.com 1.10,2013-02-20 17:29:00,
2013-02-20 12:44:00,44.3,-2.0,30.19,WSW,239,0.0,15.0,14,0.00,,,0.00,weatherlink.com 1.10,2013-02-20 17:44:00,
2013-02-20 12:59:00,45.1,-2.0,30.19,NW,304,2.0,10.0,14,0.00,,,0.00,weatherlink.com 1.10,2013-02-20 17:59:00,
2013-02-20 13:14:00,44.9,0.0,30.18,WNW,300,6.0,13.0,15,0.00,,,0.00,weatherlink.com 1.10,2013-02-20 18:14:00,
2013-02-20 13:29:00,44.5,1.0,30.18,NW,316,4.0,11.0,16,0.00,,,0.00,weatherlink.com 1.10,2013-02-20 18:29:00,
2013-02-20 13:44:00,44.9,1.0,30.17,WNW,297,1.0,11.0,16,0.00,,,0.00,weatherlink.com 1.10,2013-02-20 18:44:00,
2013-02-20 13:59:00,45.5,3.0,30.16,NNW,347,3.0,13.0,17,0.00,,,0.00,weatherlink.com 1.10,2013-02-20 18:59:00,
2013-02-20 14:15:00,45.7,2.0,30.16,West,281,1.0,11.0,16,0.00,,,0.00,weatherlink.com 1.10,2013-02-20 19:15:00,
2013-02-20 14:30:00,46.0,4.0,30.16,NNE,18,0.0,6.0,18,0.00,,,0.00,weatherlink.com 1.10,2013-02-20 19:30:00,
2013-02-20 14:45:00,46.6,2.0,30.17,NW,304,3.0,4.0,16,0.00,,,0.00,weatherlink.com 1.10,2013-02-20 19:45:00,
2013-02-20 15:00:00,46.9,3.0,30.16,WSW,238,4.0,5.0,16,0.00,,,0.00,weatherlink.com 1.10,2013-02-20 20:00:00,
2013-02-20 15:15:00,46.8,3.0,30.17,WSW,258,0.0,7.0,16,0.00,,,0.00,weatherlink.com 1.10,2013-02-20 20:15:00,
2013-02-20 15:30:00,46.6,-1.0,30.17,SE,141,1.0,8.0,14,0.00,,,0.00,weatherlink.com 1.10,2013-02-20 20:30:00,
2013-02-20 15:45:00,46.4,2.0,30.17,NW,309,2.0,8.0,16,0.00,,,0.00,weatherlink.com 1.10,2013-02-20 20:45:00,
2013-02-20 16:00:00,46.3,6.0,30.18,WSW,253,3.0,6.0,19,0.00,,,0.00,weatherlink.com 1.10,2013-02-20 21:00:00,
2013-02-20 16:15:00,46.0,4.0,30.18,West,259,2.0,4.0,18,0.00,,,0.00,weatherlink.com 1.10,2013-02-20 21:15:00,
2013-02-20 16:30:00,45.3,5.0,30.19,North,358,0.0,3.0,19,0.00,,,0.00,weatherlink.com 1.10,2013-02-20 21:30:00,
2013-02-20 16:45:00,44.7,5.0,30.19,South,173,1.0,4.0,19,0.00,,,0.00,weatherlink.com 1.10,2013-02-20 21:45:00,
2013-02-20 17:00:00,44.2,3.0,30.20,ENE,77,3.0,4.0,18,0.00,,,0.00,weatherlink.com 1.10,2013-02-20 22:00:00,
2013-02-20 17:15:00,43.7,3.0,30.21,NW,314,0.0,6.0,18,0.00,,,0.00,weatherlink.com 1.10,2013-02-20 22:15:00,
2013-02-20 17:30:00,43.1,4.0,30.20,ENE,76,1.0,4.0,20,0.00,,,0.00,weatherlink.com 1.10,2013-02-20 22:30:00,
2013-02-20 17:46:00,42.5,0.0,30.20,SW,236,2.0,4.0,17,0.00,,,0.00,weatherlink.com 1.10,2013-02-20 22:46:00,
2013-02-20 18:01:00,42.1,2.0,30.21,East,100,0.0,4.0,19,0.00,,,0.00,weatherlink.com 1.10,2013-02-20 23:01:00,
2013-02-20 18:16:00,41.4,8.0,30.21,SE,137,0.0,5.0,25,0.00,,,0.00,weatherlink.com 1.10,2013-02-20 23:16:00,
2013-02-20 18:31:00,39.5,11.0,30.20,SW,222,0.0,1.0,31,0.00,,,0.00,weatherlink.com 1.10,2013-02-20 23:31:00,
2013-02-20 18:46:00,39.4,4.0,30.20,WSW,242,0.0,2.0,23,0.00,,,0.00,weatherlink.com 1.10,2013-02-20 23:46:00,
2013-02-20 19:01:00,39.9,2.0,30.20,WNW,282,0.0,3.0,20,0.00,,,0.00,weatherlink.com 1.10,2013-02-21 00:01:00,
2013-02-20 19:16:00,39.7,2.0,30.22,ENE,72,0.0,2.0,20,0.00,,,0.00,weatherlink.com 1.10,2013-02-21 00:16:00,
2013-02-20 19:31:00,39.5,0.0,30.21,WSW,240,2.0,6.0,19,0.00,,,0.00,weatherlink.com 1.10,2013-02-21 00:31:00,
2013-02-20 19:46:00,38.5,2.0,30.21,NW,304,0.0,5.0,21,0.00,,,0.00,weatherlink.com 1.10,2013-02-21 00:46:00,
2013-02-20 20:01:00,36.7,6.0,30.21,NW,314,2.0,2.0,28,0.00,,,0.00,weatherlink.com 1.10,2013-02-21 01:01:00,
2013-02-20 20:16:00,34.7,14.0,30.21,WNW,302,0.0,2.0,42,0.00,,,0.00,weatherlink.com 1.10,2013-02-21 01:16:00,
2013-02-20 20:31:00,34.0,13.0,30.21,NW,307,0.0,2.0,43,0.00,,,0.00,weatherlink.com 1.10,2013-02-21 01:31:00,
2013-02-20 20:46:00,32.3,13.0,30.21,WNW,296,0.0,2.0,45,0.00,,,0.00,weatherlink.com 1.10,2013-02-21 01:46:00,
2013-02-20 21:02:00,31.4,15.0,30.21,WSW,246,0.0,2.0,52,0.00,,,0.00,weatherlink.com 1.10,2013-02-21 02:02:00,
2013-02-20 21:17:00,30.3,15.0,30.20,SW,236,0.0,1.0,53,0.00,,,0.00,weatherlink.com 1.10,2013-02-21 02:17:00,
2013-02-20 21:32:00,30.0,14.0,30.21,SSW,192,0.0,1.0,52,0.00,,,0.00,weatherlink.com 1.10,2013-02-21 02:32:00,
2013-02-20 21:47:00,29.4,15.0,30.21,SSW,192,0.0,0.0,56,0.00,,,0.00,weatherlink.com 1.10,2013-02-21 02:47:00,
2013-02-20 22:02:00,28.7,16.0,30.21,South,191,0.0,0.0,59,0.00,,,0.00,weatherlink.com 1.10,2013-02-21 03:02:00,
2013-02-20 22:17:00,28.3,20.0,30.21,SSW,192,0.0,0.0,72,0.00,,,0.00,weatherlink.com 1.10,2013-02-21 03:17:00,
2013-02-20 22:32:00,28.5,21.0,30.21,WNW,293,0.0,2.0,74,0.00,,,0.00,weatherlink.com 1.10,2013-02-21 03:32:00,
2013-02-20 22:47:00,28.6,21.0,30.21,WNW,301,2.0,2.0,74,0.00,,,0.00,weatherlink.com 1.10,2013-02-21 03:47:00,
2013-02-20 23:02:00,28.7,19.0,30.21,WNW,301,0.0,2.0,67,0.00,,,0.00,weatherlink.com 1.10,2013-02-21 04:02:00,
2013-02-20 23:17:00,28.8,16.0,30.22,NW,307,1.0,4.0,58,0.00,,,0.00,weatherlink.com 1.10,2013-02-21 04:17:00,
2013-02-20 23:32:00,28.8,16.0,30.21,NW,307,3.0,3.0,58,0.00,,,0.00,weatherlink.com 1.10,2013-02-21 04:32:00,
2013-02-20 23:47:00,28.6,17.0,30.21,NNW,340,1.0,6.0,62,0.00,,,0.00,weatherlink.com 1.10,2013-02-21 04:47:00,